createdAt,value
2023-04-13T00:04:58.632Z,98106.47
2023-04-13T00:20:00.681Z,98097.41
2023-04-13T00:35:03.312Z,98098.75
2023-04-13T00:50:06.506Z,98093.97
2023-04-13T01:05:08.987Z,98098.53
2023-04-13T01:20:16.177Z,98089.44
2023-04-13T01:35:18.505Z,98088.38
2023-04-13T01:50:31.722Z,98082.22
2023-04-13T02:05:34.326Z,98078.72
2023-04-13T02:20:40.291Z,98072.31
2023-04-13T02:35:41.985Z,98071.50
2023-04-13T02:50:43.712Z,98072.31
2023-04-13T03:05:45.376Z,98052.53
2023-04-13T03:20:47.199Z,98033.81
2023-04-13T03:35:48.857Z,98045.31
2023-04-13T03:50:50.504Z,98063.47
2023-04-13T04:05:52.304Z,98067.78
2023-04-13T04:20:54.050Z,98070.19
2023-04-13T04:35:55.680Z,98073.44
2023-04-13T04:50:57.555Z,98092.19
2023-04-13T05:05:59.265Z,98092.50
2023-04-13T05:21:00.915Z,98120.59
2023-04-13T05:36:04.016Z,98120.00
2023-04-13T05:51:05.996Z,98141.41
2023-04-13T06:06:07.981Z,98151.00
2023-04-13T06:21:09.605Z,98162.09
2023-04-13T06:36:11.303Z,98153.72
2023-04-13T06:51:12.998Z,98174.38
2023-04-13T07:06:14.734Z,98170.28
2023-04-13T07:21:16.383Z,98198.19
2023-04-13T07:36:18.075Z,98214.84
2023-04-13T07:51:20.416Z,98237.19
2023-04-13T08:06:22.191Z,98248.47
2023-04-13T08:21:23.883Z,98257.88
2023-04-13T08:36:25.689Z,98276.69
2023-04-13T08:51:29.915Z,98276.69
2023-04-13T09:06:35.108Z,98269.44
2023-04-13T09:21:44.652Z,98281.44
2023-04-13T09:36:54.223Z,98308.00
2023-04-13T09:51:57.507Z,98333.56
2023-04-13T10:06:59.177Z,98340.53
2023-04-13T10:22:01.202Z,98361.72
2023-04-13T10:37:03.040Z,98377.03
2023-04-13T10:52:04.800Z,98383.81
2023-04-13T11:07:06.813Z,98413.25
2023-04-13T11:22:13.243Z,98409.53
2023-04-13T11:37:15.747Z,98419.22
2023-04-13T11:52:17.610Z,98432.34
2023-04-13T12:07:19.809Z,98441.53
2023-04-13T12:22:21.817Z,98446.41
2023-04-13T12:37:23.619Z,98444.91
2023-04-13T12:52:25.256Z,98463.78
2023-04-13T13:07:27.066Z,98462.25
2023-04-13T13:22:28.771Z,98479.81
2023-04-13T13:37:30.460Z,98485.28
2023-04-13T13:52:32.176Z,98489.09
2023-04-13T14:07:33.884Z,98504.47
2023-04-13T14:22:39.390Z,98541.16
2023-04-13T14:37:41.258Z,98538.25
2023-04-13T14:52:46.825Z,98564.03
2023-04-13T15:07:48.687Z,98579.84
2023-04-13T15:22:50.568Z,98573.22
2023-04-13T15:37:52.480Z,98601.63
2023-04-13T15:52:54.184Z,98616.44
2023-04-13T16:07:55.841Z,98634.94
2023-04-13T16:22:57.515Z,98634.94
2023-04-13T16:37:59.279Z,98651.50
2023-04-13T16:53:03.834Z,98678.09
2023-04-13T17:08:07.837Z,98701.16
2023-04-13T17:23:09.612Z,98713.50
2023-04-13T17:38:11.294Z,98727.72
2023-04-13T17:53:13.033Z,98746.72
2023-04-13T18:08:14.705Z,98771.09
2023-04-13T18:23:16.763Z,98794.63
2023-04-13T18:38:18.500Z,98824.09
2023-04-13T18:53:20.249Z,98860.59
2023-04-13T19:08:21.944Z,98887.59
2023-04-13T19:23:23.578Z,98896.94
2023-04-13T19:38:25.380Z,98910.22
2023-04-13T19:53:27.050Z,98920.56
2023-04-13T20:08:28.823Z,98929.88
2023-04-13T20:23:30.624Z,98929.72
2023-04-13T20:38:32.735Z,98931.25
2023-04-13T20:53:35.690Z,98933.78
2023-04-13T21:08:37.388Z,98942.28
2023-04-13T21:23:39.092Z,98954.50
2023-04-13T21:38:41.535Z,98950.59
2023-04-13T21:53:43.212Z,98954.53
2023-04-13T22:08:44.938Z,98951.47
2023-04-13T22:23:46.686Z,98961.00
2023-04-13T22:38:48.645Z,98978.13
2023-04-13T22:53:50.327Z,98966.22
2023-04-13T23:08:52.106Z,98950.63
2023-04-13T23:23:53.740Z,98966.31
2023-04-13T23:38:55.438Z,98975.84
2023-04-13T23:53:57.102Z,98991.75
